sensor_id;sensor_type;location;lat;lon;timestamp;P1;durP1;ratioP1;P2;durP2;ratioP2
24407;SDS011;12542;50.924;4.516;2022-09-20T00:01:15;5.38;;;1.10;;
24407;SDS011;12542;50.924;4.516;2022-09-20T00:03:45;3.45;;;1.02;;
24407;SDS011;12542;50.924;4.516;2022-09-20T00:06:14;4.55;;;1.23;;
24407;SDS011;12542;50.924;4.516;2022-09-20T00:08:41;5.28;;;1.10;;
24407;SDS011;12542;50.924;4.516;2022-09-20T00:11:11;5.00;;;1.20;;
24407;SDS011;12542;50.924;4.516;2022-09-20T00:13:39;3.15;;;1.13;;
24407;SDS011;12542;50.924;4.516;2022-09-20T00:16:07;5.80;;;2.00;;
24407;SDS011;12542;50.924;4.516;2022-09-20T00:18:38;5.07;;;1.15;;
24407;SDS011;12542;50.924;4.516;2022-09-20T00:21:05;3.38;;;1.05;;
24407;SDS011;12542;50.924;4.516;2022-09-20T00:23:31;3.25;;;1.02;;
24407;SDS011;12542;50.924;4.516;2022-09-20T00:26:01;2.90;;;1.23;;
24407;SDS011;12542;50.924;4.516;2022-09-20T00:28:28;6.25;;;1.30;;
24407;SDS011;12542;50.924;4.516;2022-09-20T00:30:55;3.95;;;0.93;;
24407;SDS011;12542;50.924;4.516;2022-09-20T00:33:22;5.30;;;1.20;;
24407;SDS011;12542;50.924;4.516;2022-09-20T00:35:50;4.75;;;1.10;;
24407;SDS011;12542;50.924;4.516;2022-09-20T00:38:16;4.28;;;0.80;;
24407;SDS011;12542;50.924;4.516;2022-09-20T00:40:42;5.57;;;1.20;;
24407;SDS011;12542;50.924;4.516;2022-09-20T00:43:12;4.25;;;0.90;;
24407;SDS011;12542;50.924;4.516;2022-09-20T00:45:40;4.05;;;1.13;;
24407;SDS011;12542;50.924;4.516;2022-09-20T00:48:11;6.03;;;1.00;;
24407;SDS011;12542;50.924;4.516;2022-09-20T00:50:50;3.70;;;1.08;;
24407;SDS011;12542;50.924;4.516;2022-09-20T00:53:26;2.20;;;1.02;;
24407;SDS011;12542;50.924;4.516;2022-09-20T00:55:58;5.28;;;1.27;;
24407;SDS011;12542;50.924;4.516;2022-09-20T00:58:31;3.95;;;1.10;;
24407;SDS011;12542;50.924;4.516;2022-09-20T01:01:02;4.35;;;1.25;;
24407;SDS011;12542;50.924;4.516;2022-09-20T01:03:30;5.57;;;1.10;;
24407;SDS011;12542;50.924;4.516;2022-09-20T01:05:58;5.55;;;1.35;;
24407;SDS011;12542;50.924;4.516;2022-09-20T01:08:28;4.93;;;1.27;;
24407;SDS011;12542;50.924;4.516;2022-09-20T01:10:56;5.28;;;1.27;;
24407;SDS011;12542;50.924;4.516;2022-09-20T01:13:22;3.20;;;1.58;;
24407;SDS011;12542;50.924;4.516;2022-09-20T01:15:48;3.85;;;1.50;;
24407;SDS011;12542;50.924;4.516;2022-09-20T01:18:15;9.57;;;1.90;;
24407;SDS011;12542;50.924;4.516;2022-09-20T01:20:43;6.50;;;2.25;;
24407;SDS011;12542;50.924;4.516;2022-09-20T01:28:20;7.68;;;1.88;;
24407;SDS011;12542;50.924;4.516;2022-09-20T01:30:49;6.75;;;2.50;;
24407;SDS011;12542;50.924;4.516;2022-09-20T01:36:24;4.45;;;1.85;;
24407;SDS011;12542;50.924;4.516;2022-09-20T01:39:22;8.15;;;1.95;;
24407;SDS011;12542;50.924;4.516;2022-09-20T01:41:52;8.10;;;2.13;;
24407;SDS011;12542;50.924;4.516;2022-09-20T01:44:21;5.28;;;1.77;;
24407;SDS011;12542;50.924;4.516;2022-09-20T01:47:00;5.07;;;1.58;;
24407;SDS011;12542;50.924;4.516;2022-09-20T01:56:33;11.23;;;1.70;;
24407;SDS011;12542;50.924;4.516;2022-09-20T01:59:23;7.47;;;1.95;;
24407;SDS011;12542;50.924;4.516;2022-09-20T02:04:57;8.40;;;2.22;;
24407;SDS011;12542;50.924;4.516;2022-09-20T02:13:00;4.40;;;1.92;;
24407;SDS011;12542;50.924;4.516;2022-09-20T02:21:09;10.80;;;2.33;;
24407;SDS011;12542;50.924;4.516;2022-09-20T02:26:43;5.72;;;1.70;;
24407;SDS011;12542;50.924;4.516;2022-09-20T02:32:39;8.35;;;1.85;;
24407;SDS011;12542;50.924;4.516;2022-09-20T02:42:50;6.70;;;2.03;;
24407;SDS011;12542;50.924;4.516;2022-09-20T02:45:29;3.67;;;1.55;;
24407;SDS011;12542;50.924;4.516;2022-09-20T02:48:13;7.82;;;1.83;;
24407;SDS011;12542;50.924;4.516;2022-09-20T02:53:54;6.32;;;2.10;;
24407;SDS011;12542;50.924;4.516;2022-09-20T02:56:50;6.47;;;1.60;;
24407;SDS011;12542;50.924;4.516;2022-09-20T03:07:39;9.02;;;1.95;;
24407;SDS011;12542;50.924;4.516;2022-09-20T03:13:53;8.73;;;2.17;;
24407;SDS011;12542;50.924;4.516;2022-09-20T03:17:21;5.82;;;2.10;;
24407;SDS011;12542;50.924;4.516;2022-09-20T03:22:31;7.70;;;2.20;;
24407;SDS011;12542;50.924;4.516;2022-09-20T03:28:17;9.05;;;1.70;;
24407;SDS011;12542;50.924;4.516;2022-09-20T04:04:54;8.82;;;2.15;;
24407;SDS011;12542;50.924;4.516;2022-09-20T04:13:00;5.20;;;2.05;;
24407;SDS011;12542;50.924;4.516;2022-09-20T04:21:28;6.00;;;2.15;;
24407;SDS011;12542;50.924;4.516;2022-09-20T04:26:48;7.85;;;2.40;;
24407;SDS011;12542;50.924;4.516;2022-09-20T04:29:35;8.48;;;2.45;;
24407;SDS011;12542;50.924;4.516;2022-09-20T04:38:12;6.63;;;2.00;;
24407;SDS011;12542;50.924;4.516;2022-09-20T04:49:56;6.38;;;2.08;;
24407;SDS011;12542;50.924;4.516;2022-09-20T05:30:57;6.85;;;3.25;;
24407;SDS011;12542;50.924;4.516;2022-09-20T05:37:04;9.15;;;3.63;;
24407;SDS011;12542;50.924;4.516;2022-09-20T05:39:39;6.68;;;3.35;;
24407;SDS011;12542;50.924;4.516;2022-09-20T05:42:21;6.55;;;3.63;;
24407;SDS011;12542;50.924;4.516;2022-09-20T05:56:13;17.33;;;7.25;;
24407;SDS011;12542;50.924;4.516;2022-09-20T05:58:54;7.63;;;3.55;;
24407;SDS011;12542;50.924;4.516;2022-09-20T06:01:54;13.23;;;3.70;;
24407;SDS011;12542;50.924;4.516;2022-09-20T06:04:37;9.18;;;3.17;;
24407;SDS011;12542;50.924;4.516;2022-09-20T06:12:23;8.32;;;2.80;;
24407;SDS011;12542;50.924;4.516;2022-09-20T06:17:37;6.22;;;2.85;;
24407;SDS011;12542;50.924;4.516;2022-09-20T06:20:17;8.25;;;2.83;;
24407;SDS011;12542;50.924;4.516;2022-09-20T06:22:51;9.18;;;2.83;;
24407;SDS011;12542;50.924;4.516;2022-09-20T06:25:43;8.50;;;2.80;;
24407;SDS011;12542;50.924;4.516;2022-09-20T06:28:20;6.43;;;2.28;;
24407;SDS011;12542;50.924;4.516;2022-09-20T06:31:07;5.50;;;2.90;;
24407;SDS011;12542;50.924;4.516;2022-09-20T06:33:41;5.88;;;2.85;;
24407;SDS011;12542;50.924;4.516;2022-09-20T06:36:27;7.97;;;3.28;;
24407;SDS011;12542;50.924;4.516;2022-09-20T06:41:59;9.97;;;3.63;;
24407;SDS011;12542;50.924;4.516;2022-09-20T06:44:25;7.68;;;3.15;;
24407;SDS011;12542;50.924;4.516;2022-09-20T06:46:53;7.68;;;2.85;;
24407;SDS011;12542;50.924;4.516;2022-09-20T06:49:19;9.82;;;3.25;;
24407;SDS011;12542;50.924;4.516;2022-09-20T06:51:46;10.95;;;2.83;;
24407;SDS011;12542;50.924;4.516;2022-09-20T06:54:16;16.40;;;3.10;;
24407;SDS011;12542;50.924;4.516;2022-09-20T06:56:45;8.10;;;2.42;;
24407;SDS011;12542;50.924;4.516;2022-09-20T06:59:13;11.10;;;3.03;;
24407;SDS011;12542;50.924;4.516;2022-09-20T07:01:39;111.25;;;11.43;;
24407;SDS011;12542;50.924;4.516;2022-09-20T07:04:06;12.90;;;3.38;;
24407;SDS011;12542;50.924;4.516;2022-09-20T07:06:32;10.77;;;3.70;;
24407;SDS011;12542;50.924;4.516;2022-09-20T07:08:58;26.45;;;4.95;;
24407;SDS011;12542;50.924;4.516;2022-09-20T07:11:24;9.77;;;2.60;;
24407;SDS011;12542;50.924;4.516;2022-09-20T07:13:51;8.60;;;2.70;;
24407;SDS011;12542;50.924;4.516;2022-09-20T07:16:18;9.32;;;2.83;;
24407;SDS011;12542;50.924;4.516;2022-09-20T07:18:45;7.80;;;2.40;;
24407;SDS011;12542;50.924;4.516;2022-09-20T07:21:14;11.45;;;2.80;;
24407;SDS011;12542;50.924;4.516;2022-09-20T07:23:42;8.13;;;3.40;;
24407;SDS011;12542;50.924;4.516;2022-09-20T07:26:20;10.57;;;2.42;;
24407;SDS011;12542;50.924;4.516;2022-09-20T07:28:48;9.10;;;2.33;;
24407;SDS011;12542;50.924;4.516;2022-09-20T07:31:18;7.20;;;2.53;;
24407;SDS011;12542;50.924;4.516;2022-09-20T07:33:45;10.05;;;2.88;;
24407;SDS011;12542;50.924;4.516;2022-09-20T07:36:11;7.55;;;2.28;;
24407;SDS011;12542;50.924;4.516;2022-09-20T07:38:38;7.45;;;2.65;;
24407;SDS011;12542;50.924;4.516;2022-09-20T07:41:04;25.55;;;4.68;;
24407;SDS011;12542;50.924;4.516;2022-09-20T07:43:30;7.85;;;2.58;;
24407;SDS011;12542;50.924;4.516;2022-09-20T07:45:56;13.05;;;2.70;;
24407;SDS011;12542;50.924;4.516;2022-09-20T07:48:26;38.90;;;5.75;;
24407;SDS011;12542;50.924;4.516;2022-09-20T07:50:57;11.80;;;3.10;;
24407;SDS011;12542;50.924;4.516;2022-09-20T07:53:26;9.45;;;2.63;;
24407;SDS011;12542;50.924;4.516;2022-09-20T07:55:58;6.75;;;2.97;;
24407;SDS011;12542;50.924;4.516;2022-09-20T07:58:29;9.07;;;3.22;;
24407;SDS011;12542;50.924;4.516;2022-09-20T08:00:58;8.57;;;3.05;;
24407;SDS011;12542;50.924;4.516;2022-09-20T08:03:35;10.18;;;3.38;;
24407;SDS011;12542;50.924;4.516;2022-09-20T08:06:03;7.40;;;3.03;;
24407;SDS011;12542;50.924;4.516;2022-09-20T08:08:34;8.55;;;4.20;;
24407;SDS011;12542;50.924;4.516;2022-09-20T08:11:08;16.90;;;3.92;;
24407;SDS011;12542;50.924;4.516;2022-09-20T08:16:03;8.88;;;3.38;;
24407;SDS011;12542;50.924;4.516;2022-09-20T08:18:31;7.93;;;3.28;;
24407;SDS011;12542;50.924;4.516;2022-09-20T08:21:08;15.02;;;4.25;;
24407;SDS011;12542;50.924;4.516;2022-09-20T08:23:35;9.65;;;3.90;;
24407;SDS011;12542;50.924;4.516;2022-09-20T08:26:03;13.63;;;3.75;;
24407;SDS011;12542;50.924;4.516;2022-09-20T08:28:30;8.90;;;3.92;;
24407;SDS011;12542;50.924;4.516;2022-09-20T08:31:01;12.38;;;3.58;;
24407;SDS011;12542;50.924;4.516;2022-09-20T08:33:27;10.63;;;3.70;;
24407;SDS011;12542;50.924;4.516;2022-09-20T08:35:52;11.65;;;4.28;;
24407;SDS011;12542;50.924;4.516;2022-09-20T08:38:18;17.85;;;3.83;;
24407;SDS011;12542;50.924;4.516;2022-09-20T08:40:44;17.20;;;4.07;;
24407;SDS011;12542;50.924;4.516;2022-09-20T08:43:10;7.68;;;3.50;;
24407;SDS011;12542;50.924;4.516;2022-09-20T08:45:37;11.13;;;3.97;;
24407;SDS011;12542;50.924;4.516;2022-09-20T08:48:05;8.48;;;3.10;;
24407;SDS011;12542;50.924;4.516;2022-09-20T08:50:37;10.38;;;3.42;;
24407;SDS011;12542;50.924;4.516;2022-09-20T08:53:02;10.23;;;3.33;;
24407;SDS011;12542;50.924;4.516;2022-09-20T08:55:29;11.13;;;3.05;;
24407;SDS011;12542;50.924;4.516;2022-09-20T08:58:00;10.75;;;3.03;;
24407;SDS011;12542;50.924;4.516;2022-09-20T09:00:30;6.63;;;2.55;;
24407;SDS011;12542;50.924;4.516;2022-09-20T09:02:58;4.70;;;2.53;;
24407;SDS011;12542;50.924;4.516;2022-09-20T09:08:21;8.27;;;2.95;;
24407;SDS011;12542;50.924;4.516;2022-09-20T09:10:54;8.15;;;2.85;;
24407;SDS011;12542;50.924;4.516;2022-09-20T09:13:26;8.38;;;2.85;;
24407;SDS011;12542;50.924;4.516;2022-09-20T09:16:10;11.32;;;3.08;;
24407;SDS011;12542;50.924;4.516;2022-09-20T09:18:40;5.50;;;2.50;;
24407;SDS011;12542;50.924;4.516;2022-09-20T09:21:07;8.63;;;2.58;;
24407;SDS011;12542;50.924;4.516;2022-09-20T09:23:43;10.10;;;2.50;;
24407;SDS011;12542;50.924;4.516;2022-09-20T09:26:26;7.18;;;2.67;;
24407;SDS011;12542;50.924;4.516;2022-09-20T09:29:06;8.82;;;2.67;;
24407;SDS011;12542;50.924;4.516;2022-09-20T09:31:37;9.73;;;2.55;;
24407;SDS011;12542;50.924;4.516;2022-09-20T09:34:04;7.60;;;2.50;;
24407;SDS011;12542;50.924;4.516;2022-09-20T09:36:46;6.93;;;2.22;;
24407;SDS011;12542;50.924;4.516;2022-09-20T09:39:12;6.55;;;2.63;;
24407;SDS011;12542;50.924;4.516;2022-09-20T09:41:40;8.00;;;2.10;;
24407;SDS011;12542;50.924;4.516;2022-09-20T09:44:17;11.48;;;2.30;;
24407;SDS011;12542;50.924;4.516;2022-09-20T09:46:44;4.80;;;1.52;;
24407;SDS011;12542;50.924;4.516;2022-09-20T09:52:05;7.65;;;1.77;;
24407;SDS011;12542;50.924;4.516;2022-09-20T09:54:47;7.35;;;2.08;;
24407;SDS011;12542;50.924;4.516;2022-09-20T10:00:20;6.97;;;1.80;;
24407;SDS011;12542;50.924;4.516;2022-09-20T10:05:34;9.17;;;2.73;;
24407;SDS011;12542;50.924;4.516;2022-09-20T10:10:40;10.82;;;3.08;;
24407;SDS011;12542;50.924;4.516;2022-09-20T10:24:55;10.35;;;2.22;;
24407;SDS011;12542;50.924;4.516;2022-09-20T10:30:23;8.30;;;2.10;;
24407;SDS011;12542;50.924;4.516;2022-09-20T10:35:50;8.38;;;2.00;;
24407;SDS011;12542;50.924;4.516;2022-09-20T10:38:33;6.40;;;2.08;;
24407;SDS011;12542;50.924;4.516;2022-09-20T10:47:32;5.07;;;2.28;;
24407;SDS011;12542;50.924;4.516;2022-09-20T10:59:06;9.95;;;1.90;;
24407;SDS011;12542;50.924;4.516;2022-09-20T11:07:57;7.13;;;1.15;;
24407;SDS011;12542;50.924;4.516;2022-09-20T11:10:31;7.43;;;1.30;;
24407;SDS011;12542;50.924;4.516;2022-09-20T11:15:56;3.97;;;1.30;;
24407;SDS011;12542;50.924;4.516;2022-09-20T11:26:34;4.45;;;0.90;;
24407;SDS011;12542;50.924;4.516;2022-09-20T11:29:20;6.28;;;1.17;;
24407;SDS011;12542;50.924;4.516;2022-09-20T11:32:11;5.68;;;1.15;;
24407;SDS011;12542;50.924;4.516;2022-09-20T11:34:46;5.37;;;1.30;;
24407;SDS011;12542;50.924;4.516;2022-09-20T11:37:22;7.30;;;1.10;;
24407;SDS011;12542;50.924;4.516;2022-09-20T11:39:54;7.82;;;1.02;;
24407;SDS011;12542;50.924;4.516;2022-09-20T11:42:21;4.20;;;1.45;;
24407;SDS011;12542;50.924;4.516;2022-09-20T11:44:51;6.82;;;1.30;;
24407;SDS011;12542;50.924;4.516;2022-09-20T11:58:24;3.40;;;0.90;;
24407;SDS011;12542;50.924;4.516;2022-09-20T12:00:51;6.65;;;1.00;;
24407;SDS011;12542;50.924;4.516;2022-09-20T12:06:04;6.90;;;1.20;;
24407;SDS011;12542;50.924;4.516;2022-09-20T12:08:48;6.30;;;1.13;;
24407;SDS011;12542;50.924;4.516;2022-09-20T12:11:25;8.38;;;1.25;;
24407;SDS011;12542;50.924;4.516;2022-09-20T12:14:05;3.90;;;1.05;;
24407;SDS011;12542;50.924;4.516;2022-09-20T12:16:42;5.90;;;0.80;;
24407;SDS011;12542;50.924;4.516;2022-09-20T12:19:10;4.90;;;0.85;;
24407;SDS011;12542;50.924;4.516;2022-09-20T12:22:39;6.65;;;0.88;;
24407;SDS011;12542;50.924;4.516;2022-09-20T12:24:34;6.30;;;1.08;;
24407;SDS011;12542;50.924;4.516;2022-09-20T12:27:20;3.92;;;0.60;;
24407;SDS011;12542;50.924;4.516;2022-09-20T12:32:32;3.53;;;0.85;;
24407;SDS011;12542;50.924;4.516;2022-09-20T12:41:04;5.32;;;0.60;;
24407;SDS011;12542;50.924;4.516;2022-09-20T12:43:30;4.72;;;0.82;;
24407;SDS011;12542;50.924;4.516;2022-09-20T12:45:58;2.40;;;0.45;;
24407;SDS011;12542;50.924;4.516;2022-09-20T12:48:25;3.35;;;1.02;;
24407;SDS011;12542;50.924;4.516;2022-09-20T12:51:00;6.55;;;0.95;;
24407;SDS011;12542;50.924;4.516;2022-09-20T12:53:59;3.42;;;1.10;;
24407;SDS011;12542;50.924;4.516;2022-09-20T12:56:38;4.82;;;1.02;;
24407;SDS011;12542;50.924;4.516;2022-09-20T12:59:06;4.90;;;1.00;;
24407;SDS011;12542;50.924;4.516;2022-09-20T13:01:51;5.70;;;0.90;;
24407;SDS011;12542;50.924;4.516;2022-09-20T13:07:28;3.33;;;0.90;;
24407;SDS011;12542;50.924;4.516;2022-09-20T13:10:13;2.80;;;0.85;;
24407;SDS011;12542;50.924;4.516;2022-09-20T13:12:50;3.33;;;0.70;;
24407;SDS011;12542;50.924;4.516;2022-09-20T13:15:20;1.92;;;0.55;;
24407;SDS011;12542;50.924;4.516;2022-09-20T13:17:47;5.40;;;0.85;;
24407;SDS011;12542;50.924;4.516;2022-09-20T13:20:17;3.47;;;0.80;;
24407;SDS011;12542;50.924;4.516;2022-09-20T13:22:48;4.75;;;1.20;;
24407;SDS011;12542;50.924;4.516;2022-09-20T13:25:16;3.53;;;1.00;;
24407;SDS011;12542;50.924;4.516;2022-09-20T13:27:54;5.28;;;0.88;;
24407;SDS011;12542;50.924;4.516;2022-09-20T13:30:33;3.80;;;1.05;;
24407;SDS011;12542;50.924;4.516;2022-09-20T13:35:47;2.78;;;0.98;;
24407;SDS011;12542;50.924;4.516;2022-09-20T13:38:17;4.28;;;1.48;;
24407;SDS011;12542;50.924;4.516;2022-09-20T13:40:49;3.35;;;0.93;;
24407;SDS011;12542;50.924;4.516;2022-09-20T13:43:24;3.33;;;1.00;;
24407;SDS011;12542;50.924;4.516;2022-09-20T13:46:05;4.13;;;1.45;;
24407;SDS011;12542;50.924;4.516;2022-09-20T13:48:36;3.90;;;1.30;;
24407;SDS011;12542;50.924;4.516;2022-09-20T13:51:02;5.95;;;1.20;;
24407;SDS011;12542;50.924;4.516;2022-09-20T13:53:29;4.55;;;0.90;;
24407;SDS011;12542;50.924;4.516;2022-09-20T13:55:54;3.80;;;1.33;;
24407;SDS011;12542;50.924;4.516;2022-09-20T13:58:23;5.63;;;1.00;;
24407;SDS011;12542;50.924;4.516;2022-09-20T14:00:58;4.22;;;0.90;;
24407;SDS011;12542;50.924;4.516;2022-09-20T14:03:33;6.10;;;0.80;;
24407;SDS011;12542;50.924;4.516;2022-09-20T14:06:04;4.68;;;0.80;;
24407;SDS011;12542;50.924;4.516;2022-09-20T14:08:39;6.38;;;0.80;;
24407;SDS011;12542;50.924;4.516;2022-09-20T14:11:13;6.97;;;1.25;;
24407;SDS011;12542;50.924;4.516;2022-09-20T14:14:00;2.88;;;0.82;;
24407;SDS011;12542;50.924;4.516;2022-09-20T14:16:29;7.50;;;0.85;;
24407;SDS011;12542;50.924;4.516;2022-09-20T14:18:58;5.60;;;0.80;;
24407;SDS011;12542;50.924;4.516;2022-09-20T14:21:30;4.18;;;0.82;;
24407;SDS011;12542;50.924;4.516;2022-09-20T14:23:58;4.55;;;1.00;;
24407;SDS011;12542;50.924;4.516;2022-09-20T14:27:03;6.75;;;0.80;;
24407;SDS011;12542;50.924;4.516;2022-09-20T14:39:52;10.10;;;2.15;;
24407;SDS011;12542;50.924;4.516;2022-09-20T14:44:59;6.03;;;1.10;;
24407;SDS011;12542;50.924;4.516;2022-09-20T14:47:27;7.47;;;1.05;;
24407;SDS011;12542;50.924;4.516;2022-09-20T14:50:00;6.20;;;1.08;;
24407;SDS011;12542;50.924;4.516;2022-09-20T14:54:59;7.30;;;1.05;;
24407;SDS011;12542;50.924;4.516;2022-09-20T14:57:35;7.65;;;1.23;;
24407;SDS011;12542;50.924;4.516;2022-09-20T15:00:10;6.22;;;1.15;;
24407;SDS011;12542;50.924;4.516;2022-09-20T15:02:39;2.28;;;0.60;;
24407;SDS011;12542;50.924;4.516;2022-09-20T15:05:15;3.80;;;1.15;;
24407;SDS011;12542;50.924;4.516;2022-09-20T15:07:52;6.15;;;0.73;;
24407;SDS011;12542;50.924;4.516;2022-09-20T15:10:19;4.50;;;0.82;;
24407;SDS011;12542;50.924;4.516;2022-09-20T15:12:45;8.35;;;0.98;;
24407;SDS011;12542;50.924;4.516;2022-09-20T15:15:12;4.45;;;0.70;;
24407;SDS011;12542;50.924;4.516;2022-09-20T15:17:40;4.45;;;0.63;;
24407;SDS011;12542;50.924;4.516;2022-09-20T15:20:14;3.00;;;0.85;;
24407;SDS011;12542;50.924;4.516;2022-09-20T15:22:48;3.40;;;0.70;;
24407;SDS011;12542;50.924;4.516;2022-09-20T15:25:15;4.00;;;0.82;;
24407;SDS011;12542;50.924;4.516;2022-09-20T15:27:43;4.80;;;0.90;;
24407;SDS011;12542;50.924;4.516;2022-09-20T15:30:11;4.57;;;1.30;;
24407;SDS011;12542;50.924;4.516;2022-09-20T15:32:40;4.47;;;1.17;;
24407;SDS011;12542;50.924;4.516;2022-09-20T15:35:07;5.03;;;1.02;;
24407;SDS011;12542;50.924;4.516;2022-09-20T15:37:34;2.65;;;1.10;;
24407;SDS011;12542;50.924;4.516;2022-09-20T15:40:00;4.43;;;1.00;;
24407;SDS011;12542;50.924;4.516;2022-09-20T15:42:26;3.72;;;0.80;;
24407;SDS011;12542;50.924;4.516;2022-09-20T15:44:53;5.53;;;1.10;;
24407;SDS011;12542;50.924;4.516;2022-09-20T15:47:19;5.00;;;1.38;;
24407;SDS011;12542;50.924;4.516;2022-09-20T15:49:47;9.52;;;2.70;;
24407;SDS011;12542;50.924;4.516;2022-09-20T15:52:15;4.68;;;2.45;;
24407;SDS011;12542;50.924;4.516;2022-09-20T15:54:41;4.35;;;1.70;;
24407;SDS011;12542;50.924;4.516;2022-09-20T15:57:07;3.22;;;1.40;;
24407;SDS011;12542;50.924;4.516;2022-09-20T15:59:33;6.70;;;1.70;;
24407;SDS011;12542;50.924;4.516;2022-09-20T16:01:59;7.93;;;1.60;;
24407;SDS011;12542;50.924;4.516;2022-09-20T16:04:25;4.55;;;1.90;;
24407;SDS011;12542;50.924;4.516;2022-09-20T16:06:53;8.27;;;2.38;;
24407;SDS011;12542;50.924;4.516;2022-09-20T16:09:20;7.38;;;1.55;;
24407;SDS011;12542;50.924;4.516;2022-09-20T16:11:46;4.85;;;1.60;;
24407;SDS011;12542;50.924;4.516;2022-09-20T16:14:12;8.00;;;1.60;;
24407;SDS011;12542;50.924;4.516;2022-09-20T16:16:38;8.18;;;1.73;;
24407;SDS011;12542;50.924;4.516;2022-09-20T16:19:04;8.43;;;1.90;;
24407;SDS011;12542;50.924;4.516;2022-09-20T16:21:54;5.25;;;1.25;;
24407;SDS011;12542;50.924;4.516;2022-09-20T16:24:25;5.57;;;1.10;;
24407;SDS011;12542;50.924;4.516;2022-09-20T16:26:53;6.88;;;1.10;;
24407;SDS011;12542;50.924;4.516;2022-09-20T16:29:19;4.90;;;1.77;;
24407;SDS011;12542;50.924;4.516;2022-09-20T16:31:49;3.63;;;1.20;;
24407;SDS011;12542;50.924;4.516;2022-09-20T16:36:52;5.53;;;1.10;;
24407;SDS011;12542;50.924;4.516;2022-09-20T16:39:20;7.18;;;1.58;;
24407;SDS011;12542;50.924;4.516;2022-09-20T16:41:51;5.28;;;1.13;;
24407;SDS011;12542;50.924;4.516;2022-09-20T16:44:23;8.30;;;1.88;;
24407;SDS011;12542;50.924;4.516;2022-09-20T16:46:50;4.28;;;1.30;;
24407;SDS011;12542;50.924;4.516;2022-09-20T16:49:15;5.70;;;1.58;;
24407;SDS011;12542;50.924;4.516;2022-09-20T16:51:42;3.75;;;1.10;;
24407;SDS011;12542;50.924;4.516;2022-09-20T16:54:09;5.43;;;1.50;;
24407;SDS011;12542;50.924;4.516;2022-09-20T16:56:41;6.47;;;1.40;;
24407;SDS011;12542;50.924;4.516;2022-09-20T16:59:09;12.60;;;2.92;;
24407;SDS011;12542;50.924;4.516;2022-09-20T17:01:36;12.07;;;2.95;;
24407;SDS011;12542;50.924;4.516;2022-09-20T17:04:04;9.18;;;2.10;;
24407;SDS011;12542;50.924;4.516;2022-09-20T17:06:31;10.50;;;1.95;;
24407;SDS011;12542;50.924;4.516;2022-09-20T17:09:01;5.07;;;1.60;;
24407;SDS011;12542;50.924;4.516;2022-09-20T17:11:29;6.43;;;1.80;;
24407;SDS011;12542;50.924;4.516;2022-09-20T17:13:58;4.65;;;1.23;;
24407;SDS011;12542;50.924;4.516;2022-09-20T17:18:54;6.72;;;1.60;;
24407;SDS011;12542;50.924;4.516;2022-09-20T17:21:22;6.22;;;1.75;;
24407;SDS011;12542;50.924;4.516;2022-09-20T17:23:52;3.90;;;1.58;;
24407;SDS011;12542;50.924;4.516;2022-09-20T17:26:21;5.00;;;1.50;;
24407;SDS011;12542;50.924;4.516;2022-09-20T17:28:52;5.65;;;1.45;;
24407;SDS011;12542;50.924;4.516;2022-09-20T17:31:20;5.68;;;1.80;;
24407;SDS011;12542;50.924;4.516;2022-09-20T17:33:48;6.80;;;1.73;;
24407;SDS011;12542;50.924;4.516;2022-09-20T17:36:15;6.53;;;1.98;;
24407;SDS011;12542;50.924;4.516;2022-09-20T17:38:43;7.97;;;2.80;;
24407;SDS011;12542;50.924;4.516;2022-09-20T17:41:15;7.53;;;2.83;;
24407;SDS011;12542;50.924;4.516;2022-09-20T17:43:42;7.57;;;3.33;;
24407;SDS011;12542;50.924;4.516;2022-09-20T17:46:20;10.27;;;3.75;;
24407;SDS011;12542;50.924;4.516;2022-09-20T17:48:52;8.60;;;4.13;;
24407;SDS011;12542;50.924;4.516;2022-09-20T17:51:20;6.80;;;3.80;;
24407;SDS011;12542;50.924;4.516;2022-09-20T17:53:50;6.90;;;2.97;;
24407;SDS011;12542;50.924;4.516;2022-09-20T17:56:17;7.93;;;3.47;;
24407;SDS011;12542;50.924;4.516;2022-09-20T17:58:47;9.63;;;3.95;;
24407;SDS011;12542;50.924;4.516;2022-09-20T18:01:13;10.50;;;3.80;;
24407;SDS011;12542;50.924;4.516;2022-09-20T18:03:42;7.75;;;3.78;;
24407;SDS011;12542;50.924;4.516;2022-09-20T18:08:43;7.80;;;3.78;;
24407;SDS011;12542;50.924;4.516;2022-09-20T18:11:15;8.57;;;3.80;;
24407;SDS011;12542;50.924;4.516;2022-09-20T18:13:43;7.20;;;4.47;;
24407;SDS011;12542;50.924;4.516;2022-09-20T18:16:09;9.88;;;4.18;;
24407;SDS011;12542;50.924;4.516;2022-09-20T18:18:37;9.18;;;4.00;;
24407;SDS011;12542;50.924;4.516;2022-09-20T18:21:08;7.43;;;3.45;;
24407;SDS011;12542;50.924;4.516;2022-09-20T18:23:34;9.65;;;2.80;;
24407;SDS011;12542;50.924;4.516;2022-09-20T18:26:07;8.05;;;3.83;;
24407;SDS011;12542;50.924;4.516;2022-09-20T18:31:39;11.93;;;3.85;;
24407;SDS011;12542;50.924;4.516;2022-09-20T18:34:10;10.02;;;3.53;;
24407;SDS011;12542;50.924;4.516;2022-09-20T18:36:39;7.90;;;3.72;;
24407;SDS011;12542;50.924;4.516;2022-09-20T18:39:06;8.38;;;4.00;;
24407;SDS011;12542;50.924;4.516;2022-09-20T18:41:33;7.28;;;3.88;;
24407;SDS011;12542;50.924;4.516;2022-09-20T18:44:01;8.40;;;3.53;;
24407;SDS011;12542;50.924;4.516;2022-09-20T18:46:28;9.77;;;2.67;;
24407;SDS011;12542;50.924;4.516;2022-09-20T18:48:56;8.45;;;3.00;;
24407;SDS011;12542;50.924;4.516;2022-09-20T18:51:24;9.05;;;4.35;;
24407;SDS011;12542;50.924;4.516;2022-09-20T18:53:53;8.63;;;4.03;;
24407;SDS011;12542;50.924;4.516;2022-09-20T18:56:21;9.80;;;3.97;;
24407;SDS011;12542;50.924;4.516;2022-09-20T18:58:51;7.25;;;4.50;;
24407;SDS011;12542;50.924;4.516;2022-09-20T19:12:00;13.93;;;4.38;;
24407;SDS011;12542;50.924;4.516;2022-09-20T19:17:19;9.48;;;4.32;;
24407;SDS011;12542;50.924;4.516;2022-09-20T19:20:01;8.93;;;4.15;;
24407;SDS011;12542;50.924;4.516;2022-09-20T19:22:40;8.73;;;4.10;;
24407;SDS011;12542;50.924;4.516;2022-09-20T19:28:08;9.27;;;5.50;;
24407;SDS011;12542;50.924;4.516;2022-09-20T19:30:36;7.45;;;4.35;;
24407;SDS011;12542;50.924;4.516;2022-09-20T19:33:04;8.55;;;4.60;;
24407;SDS011;12542;50.924;4.516;2022-09-20T19:35:37;11.55;;;4.57;;
24407;SDS011;12542;50.924;4.516;2022-09-20T19:38:09;8.38;;;4.68;;
24407;SDS011;12542;50.924;4.516;2022-09-20T19:41:00;16.35;;;4.63;;
24407;SDS011;12542;50.924;4.516;2022-09-20T19:49:15;8.85;;;4.80;;
24407;SDS011;12542;50.924;4.516;2022-09-20T19:51:45;12.73;;;4.70;;
24407;SDS011;12542;50.924;4.516;2022-09-20T19:54:11;10.40;;;5.00;;
24407;SDS011;12542;50.924;4.516;2022-09-20T19:57:00;9.38;;;4.35;;
24407;SDS011;12542;50.924;4.516;2022-09-20T19:59:28;8.75;;;4.20;;
24407;SDS011;12542;50.924;4.516;2022-09-20T20:01:54;8.02;;;4.45;;
24407;SDS011;12542;50.924;4.516;2022-09-20T20:04:21;11.65;;;4.78;;
24407;SDS011;12542;50.924;4.516;2022-09-20T20:12:07;12.65;;;6.50;;
24407;SDS011;12542;50.924;4.516;2022-09-20T20:28:14;16.02;;;6.85;;
24407;SDS011;12542;50.924;4.516;2022-09-20T20:30:40;10.00;;;6.00;;
24407;SDS011;12542;50.924;4.516;2022-09-20T20:33:06;15.90;;;5.97;;
24407;SDS011;12542;50.924;4.516;2022-09-20T20:35:32;10.30;;;5.97;;
24407;SDS011;12542;50.924;4.516;2022-09-20T20:37:58;9.57;;;5.63;;
24407;SDS011;12542;50.924;4.516;2022-09-20T20:40:23;9.88;;;5.82;;
24407;SDS011;12542;50.924;4.516;2022-09-20T20:42:54;14.02;;;6.03;;
24407;SDS011;12542;50.924;4.516;2022-09-20T20:47:54;10.55;;;6.00;;
24407;SDS011;12542;50.924;4.516;2022-09-20T20:50:21;10.77;;;5.47;;
24407;SDS011;12542;50.924;4.516;2022-09-20T20:52:51;10.48;;;5.35;;
24407;SDS011;12542;50.924;4.516;2022-09-20T20:55:18;16.38;;;6.40;;
24407;SDS011;12542;50.924;4.516;2022-09-20T20:57:50;12.88;;;6.30;;
24407;SDS011;12542;50.924;4.516;2022-09-20T21:00:25;8.35;;;5.10;;
24407;SDS011;12542;50.924;4.516;2022-09-20T21:02:55;11.85;;;6.55;;
24407;SDS011;12542;50.924;4.516;2022-09-20T21:05:26;11.30;;;7.22;;
24407;SDS011;12542;50.924;4.516;2022-09-20T21:07:53;12.55;;;6.50;;